Time;durP1;ratioP1;P1;durP2;ratioP2;P2;SDS_P1;SDS_P2;PMS_P1;PMS_P2;Temp;Humidity;BMP_temperature;BMP_pressure;BME280_temperature;BME280_humidity;BME280_pressure;Samples;Min_cycle;Max_cycle;Signal;HPM_P1;HPM_P2
2023/10/10 00:02:18;;;;;;;;;;;;;;;12.99;100.00;98056.69;1225791;83;2924223;-69
2023/10/10 00:04:54;;;;;;;;;;;;;;;13.53;100.00;98061.75;1227190;75;2923246;-69
2023/10/10 00:07:27;;;;;;;;;;;;;;;13.40;100.00;98058.66;1224854;75;2925140;-67
2023/10/10 00:09:59;;;;;;;;;;;;;;;13.22;100.00;98043.19;1226394;75;2927707;-74
2023/10/10 00:12:35;;;;;;;;;;;;;;;13.36;100.00;98038.84;1226353;75;2919272;-71
2023/10/10 00:15:12;;;;;;;;;;;;;;;13.65;100.00;98037.88;1214808;83;3833799;-71
2023/10/10 00:17:46;;;;;;;;;;;;;;;13.22;100.00;98063.16;1226889;75;2918254;-71
2023/10/10 00:20:22;;;;;;;;;;;;;;;13.37;100.00;98045.84;1226992;75;2917880;-70
2023/10/10 00:22:58;;;;;;;;;;;;;;;13.14;100.00;98062.09;1226156;83;2925242;-68
2023/10/10 00:25:31;;;;;;;;;;;;;;;13.17;100.00;98050.13;1227781;75;2911291;-68
2023/10/10 00:28:07;;;;;;;;;;;;;;;13.51;100.00;98047.75;1227460;75;2918381;-69
2023/10/10 00:30:43;;;;;;;;;;;;;;;13.66;100.00;98039.38;1044947;75;10945431;-70
2023/10/10 00:33:17;;;;;;;;;;;;;;;13.43;100.00;98022.66;1198181;75;5162414;-71
2023/10/10 00:35:52;;;;;;;;;;;;;;;13.34;100.00;98016.59;1210348;75;3978481;-72
2023/10/10 00:38:26;;;;;;;;;;;;;;;13.60;100.00;98019.31;1201356;75;4817784;-67
2023/10/10 00:41:05;;;;;;;;;;;;;;;13.63;100.00;98021.84;1199836;75;5029928;-70
2023/10/10 00:43:38;;;;;;;;;;;;;;;13.63;100.00;98038.34;1222842;75;3093994;-73
2023/10/10 00:46:11;;;;;;;;;;;;;;;13.29;100.00;98045.53;1227291;75;2927721;-68
2023/10/10 00:48:44;;;;;;;;;;;;;;;13.47;100.00;98060.19;1225535;83;2915950;-72
2023/10/10 00:51:21;;;;;;;;;;;;;;;13.61;100.00;98048.31;1227119;75;2940321;-68
2023/10/10 00:54:11;;;;;;;;;;;;;;;13.82;100.00;98060.03;1226526;75;2926595;-71
2023/10/10 00:56:44;;;;;;;;;;;;;;;13.62;100.00;98056.09;1221768;83;3026444;-68
2023/10/10 00:59:18;;;;;;;;;;;;;;;13.80;100.00;98043.97;1221205;75;2938220;-68
2023/10/10 01:01:50;;;;;;;;;;;;;;;13.32;100.00;98028.06;1225612;75;2928059;-68
2023/10/10 01:04:35;;;;;;;;;;;;;;;13.42;100.00;98036.91;1224155;75;3023412;-73
2023/10/10 01:07:10;;;;;;;;;;;;;;;13.67;100.00;98037.38;1226800;83;2910561;-73
2023/10/10 01:09:53;;;;;;;;;;;;;;;13.64;100.00;98033.63;1224533;83;2918973;-70
2023/10/10 01:12:26;;;;;;;;;;;;;;;13.76;100.00;98026.97;1225215;83;2923105;-68
2023/10/10 01:15:07;;;;;;;;;;;;;;;13.51;100.00;98016.72;1226715;75;2919759;-68
2023/10/10 01:17:39;;;;;;;;;;;;;;;13.92;100.00;98036.56;1225714;83;2928058;-70
2023/10/10 01:20:17;;;;;;;;;;;;;;;13.47;100.00;98038.97;1226717;75;2922919;-70
2023/10/10 01:22:56;;;;;;;;;;;;;;;13.75;100.00;98030.19;1226128;75;2921609;-70
2023/10/10 01:25:47;;;;;;;;;;;;;;;13.81;100.00;98048.25;1172521;75;5082315;-69
2023/10/10 01:28:33;;;;;;;;;;;;;;;13.62;100.00;98033.34;1208997;83;3932147;-68
2023/10/10 01:31:10;;;;;;;;;;;;;;;13.93;100.00;98035.34;1226129;75;2917632;-69
2023/10/10 01:33:47;;;;;;;;;;;;;;;13.86;100.00;98030.28;1198772;75;5090722;-69
2023/10/10 01:36:23;;;;;;;;;;;;;;;14.13;100.00;98034.47;1222919;75;3095047;-69
2023/10/10 01:39:20;;;;;;;;;;;;;;;13.74;100.00;98036.94;1225967;83;2918752;-67
2023/10/10 01:41:52;;;;;;;;;;;;;;;14.11;100.00;98052.72;1223607;75;3029583;-70
2023/10/10 01:44:27;;;;;;;;;;;;;;;13.91;100.00;98051.59;1199288;75;4954872;-69
2023/10/10 01:47:03;;;;;;;;;;;;;;;13.97;100.00;98043.38;1224992;83;2925391;-68
2023/10/10 01:49:35;;;;;;;;;;;;;;;13.95;100.00;98034.84;1224729;75;2928882;-71
2023/10/10 01:52:12;;;;;;;;;;;;;;;14.21;100.00;98043.03;1183596;75;5052774;-72
2023/10/10 01:54:53;;;;;;;;;;;;;;;14.26;100.00;98054.09;1219721;75;3046841;-72
2023/10/10 01:57:26;;;;;;;;;;;;;;;14.39;100.00;98053.66;1225630;75;2924871;-69
2023/10/10 02:00:06;;;;;;;;;;;;;;;14.39;100.00;98048.16;1148917;75;9041443;-69
2023/10/10 02:02:41;;;;;;;;;;;;;;;14.01;100.00;98046.66;1225564;75;2934461;-69
2023/10/10 02:05:13;;;;;;;;;;;;;;;14.33;100.00;98043.84;1221992;75;2980862;-69
2023/10/10 02:07:53;;;;;;;;;;;;;;;14.34;100.00;98031.63;1226153;75;2927906;-69
2023/10/10 02:10:30;;;;;;;;;;;;;;;14.40;100.00;98024.13;1223303;75;3015139;-68
2023/10/10 02:13:04;;;;;;;;;;;;;;;14.28;100.00;98026.06;1226298;75;2918331;-73
2023/10/10 02:15:39;;;;;;;;;;;;;;;14.38;100.00;98030.13;1226570;75;2916427;-69
2023/10/10 02:18:23;;;;;;;;;;;;;;;14.15;100.00;98032.00;1209372;75;3868869;-69
2023/10/10 02:21:05;;;;;;;;;;;;;;;13.88;100.00;98033.31;1207879;75;3786528;-69
2023/10/10 02:23:44;;;;;;;;;;;;;;;13.89;100.00;98032.06;1225651;75;2921828;-72
2023/10/10 02:26:23;;;;;;;;;;;;;;;13.68;100.00;98036.88;1226439;75;2918234;-68
2023/10/10 02:29:16;;;;;;;;;;;;;;;13.79;100.00;98044.50;1186851;83;5855010;-69
2023/10/10 02:31:56;;;;;;;;;;;;;;;13.66;100.00;98033.13;1220256;75;3100763;-70
2023/10/10 02:34:30;;;;;;;;;;;;;;;13.44;100.00;98039.91;1214993;75;3799923;-70
2023/10/10 02:37:13;;;;;;;;;;;;;;;13.37;100.00;98051.34;1211955;75;3993430;-68
2023/10/10 02:39:52;;;;;;;;;;;;;;;13.44;100.00;98061.91;1214514;83;3783674;-70
2023/10/10 02:42:29;;;;;;;;;;;;;;;13.30;100.00;98049.81;1225863;75;2924552;-70
2023/10/10 02:45:04;;;;;;;;;;;;;;;13.33;100.00;98050.81;1225721;75;2923426;-68
2023/10/10 02:47:36;;;;;;;;;;;;;;;13.55;100.00;98042.78;1214708;75;3792056;-71
2023/10/10 02:50:14;;;;;;;;;;;;;;;13.76;100.00;98043.47;1225457;75;2923060;-69
2023/10/10 02:52:48;;;;;;;;;;;;;;;13.65;100.00;98048.88;1222671;75;2994589;-67
2023/10/10 02:55:22;;;;;;;;;;;;;;;13.57;100.00;98058.81;1227246;75;2922666;-71
2023/10/10 02:57:59;;;;;;;;;;;;;;;13.31;100.00;98058.81;1226373;75;2934957;-69
2023/10/10 03:00:34;;;;;;;;;;;;;;;13.61;100.00;98060.09;1199820;75;5004968;-73
2023/10/10 03:03:11;;;;;;;;;;;;;;;13.47;100.00;98063.72;1225155;75;2913526;-68
2023/10/10 03:05:43;;;;;;;;;;;;;;;13.34;100.00;98055.81;1212080;75;3981015;-72
2023/10/10 03:08:18;;;;;;;;;;;;;;;13.15;100.00;98060.09;1225158;75;2926602;-70
2023/10/10 03:11:00;;;;;;;;;;;;;;;13.51;100.00;98063.50;1226532;75;2915756;-71
2023/10/10 03:13:36;;;;;;;;;;;;;;;13.49;100.00;98058.47;1222909;75;2988561;-69
2023/10/10 03:16:19;;;;;;;;;;;;;;;13.58;100.00;98060.31;1220351;75;3087420;-70
2023/10/10 03:19:11;;;;;;;;;;;;;;;13.59;100.00;98057.09;1212931;75;3947891;-70
2023/10/10 03:21:51;;;;;;;;;;;;;;;13.24;100.00;98059.94;1226591;75;2915114;-70
2023/10/10 03:24:50;;;;;;;;;;;;;;;13.32;100.00;98063.81;1226579;75;2919025;-72
2023/10/10 03:30:24;;;;;;;;;;;;;;;13.41;100.00;98065.66;1221882;75;3084118;-69
2023/10/10 03:33:08;;;;;;;;;;;;;;;13.49;100.00;98077.72;1225314;83;2925759;-72
2023/10/10 03:35:59;;;;;;;;;;;;;;;13.25;100.00;98094.44;1226890;75;2911458;-69
2023/10/10 05:23:37;;;;;;;;;;;;;;;12.61;100.00;98078.94;1223532;75;2924389;-71
2023/10/10 05:26:18;;;;;;;;;;;;;;;12.58;100.00;98086.91;1224773;75;2926634;-71
2023/10/10 05:28:51;;;;;;;;;;;;;;;12.54;100.00;98085.59;1224924;75;2930497;-69
2023/10/10 05:31:23;;;;;;;;;;;;;;;12.48;100.00;98076.50;1208409;75;3991452;-73
2023/10/10 05:33:56;;;;;;;;;;;;;;;12.62;100.00;98085.94;1222861;75;2953168;-70
2023/10/10 05:36:28;;;;;;;;;;;;;;;12.73;100.00;98095.06;1215588;75;3089631;-71
2023/10/10 05:39:01;;;;;;;;;;;;;;;12.79;100.00;98106.13;1219393;75;3037557;-67
2023/10/10 05:41:40;;;;;;;;;;;;;;;12.88;100.00;98114.25;1224806;75;2921836;-75
2023/10/10 05:44:13;;;;;;;;;;;;;;;12.91;100.00;98113.28;1224137;75;2922218;-72
2023/10/10 05:46:45;;;;;;;;;;;;;;;12.92;100.00;98122.31;1222830;83;2921154;-68
2023/10/10 05:49:18;;;;;;;;;;;;;;;12.86;100.00;98119.47;1221313;75;2956543;-70
2023/10/10 05:51:51;;;;;;;;;;;;;;;12.93;100.00;98110.81;1224479;75;2930362;-70
2023/10/10 05:54:24;;;;;;;;;;;;;;;13.10;100.00;98107.53;1221739;83;2926754;-71
2023/10/10 05:56:59;;;;;;;;;;;;;;;13.30;100.00;98120.50;1223275;75;2931254;-67
2023/10/10 05:59:32;;;;;;;;;;;;;;;13.37;100.00;98123.63;1222536;75;2967887;-71
2023/10/10 06:02:05;;;;;;;;;;;;;;;13.40;100.00;98121.91;1223273;75;2918775;-69
2023/10/10 06:04:38;;;;;;;;;;;;;;;13.51;100.00;98124.75;1223919;75;2939033;-71
2023/10/10 06:07:11;;;;;;;;;;;;;;;13.54;100.00;98129.31;1223417;75;2935986;-68
2023/10/10 06:09:43;;;;;;;;;;;;;;;13.53;100.00;98136.03;1224753;75;2928271;-71
2023/10/10 06:12:19;;;;;;;;;;;;;;;13.59;100.00;98139.59;1224053;83;2926848;-67
2023/10/10 06:14:54;;;;;;;;;;;;;;;13.75;100.00;98146.50;1225152;75;2921908;-72
2023/10/10 06:17:28;;;;;;;;;;;;;;;13.87;100.00;98155.63;1223253;83;2924528;-67
2023/10/10 06:20:00;;;;;;;;;;;;;;;13.91;100.00;98147.16;1225014;83;2924005;-70
2023/10/10 06:22:33;;;;;;;;;;;;;;;13.75;100.00;98154.75;1223836;75;2921795;-73
2023/10/10 06:25:05;;;;;;;;;;;;;;;13.52;100.00;98166.78;1224548;75;2925188;-70
2023/10/10 06:27:40;;;;;;;;;;;;;;;13.83;100.00;98166.13;1223027;75;2928988;-72
2023/10/10 06:30:17;;;;;;;;;;;;;;;14.02;100.00;98152.75;1225142;75;2922063;-71
2023/10/10 06:32:50;;;;;;;;;;;;;;;14.21;100.00;98153.94;1223448;83;2925837;-69
2023/10/10 06:35:36;;;;;;;;;;;;;;;14.29;100.00;98162.53;1222586;75;2969301;-69
2023/10/10 06:38:10;;;;;;;;;;;;;;;14.30;100.00;98163.28;1223761;75;2928883;-72
2023/10/10 06:40:52;;;;;;;;;;;;;;;14.38;100.00;98167.84;1224232;75;2928171;-69
2023/10/10 06:43:33;;;;;;;;;;;;;;;14.61;100.00;98174.31;1224680;75;2924910;-70
2023/10/10 06:46:05;;;;;;;;;;;;;;;14.73;100.00;98169.63;1212428;75;3827461;-66
2023/10/10 06:48:40;;;;;;;;;;;;;;;14.89;100.00;98190.28;1222409;75;3023010;-68
2023/10/10 06:51:15;;;;;;;;;;;;;;;14.90;100.00;98172.47;1223075;83;2922268;-73
2023/10/10 06:53:47;;;;;;;;;;;;;;;14.89;100.00;98173.75;1220577;83;3082856;-70
2023/10/10 06:56:34;;;;;;;;;;;;;;;15.05;100.00;98175.81;1222925;75;2926702;-70
2023/10/10 06:59:09;;;;;;;;;;;;;;;15.27;100.00;98182.69;1221421;75;3071275;-74
2023/10/10 07:01:41;;;;;;;;;;;;;;;15.16;100.00;98164.09;1224053;75;2923210;-71
2023/10/10 07:04:14;;;;;;;;;;;;;;;15.37;100.00;98180.47;1223853;75;2941378;-69
2023/10/10 07:06:47;;;;;;;;;;;;;;;15.17;100.00;98182.13;1222895;75;2930394;-70
2023/10/10 07:09:28;;;;;;;;;;;;;;;15.24;100.00;98183.69;1224464;75;2931015;-70
2023/10/10 07:12:09;;;;;;;;;;;;;;;15.26;100.00;98194.97;1224449;83;2918888;-71
2023/10/10 07:14:47;;;;;;;;;;;;;;;15.37;100.00;98199.78;1224614;83;2925517;-71
2023/10/10 07:17:21;;;;;;;;;;;;;;;15.53;100.00;98204.63;1223833;75;2943161;-70
2023/10/10 07:22:45;;;;;;;;;;;;;;;16.28;100.00;98212.59;1221953;75;2947284;-72
2023/10/10 07:25:31;;;;;;;;;;;;;;;16.33;100.00;98207.09;1224608;75;2932996;-70
2023/10/10 07:28:05;;;;;;;;;;;;;;;15.70;100.00;98229.53;1224212;75;2929459;-69
2023/10/10 07:30:42;;;;;;;;;;;;;;;15.39;100.00;98225.63;1210919;75;3800954;-69
2023/10/10 07:33:15;;;;;;;;;;;;;;;15.95;100.00;98225.13;1224318;75;2922097;-72
2023/10/10 07:35:53;;;;;;;;;;;;;;;15.69;100.00;98236.31;1221572;75;3111089;-75
2023/10/10 07:38:28;;;;;;;;;;;;;;;15.51;100.00;98234.72;1225037;75;2923838;-68
2023/10/10 07:41:04;;;;;;;;;;;;;;;15.70;100.00;98232.31;1222460;75;3012838;-70
2023/10/10 07:43:37;;;;;;;;;;;;;;;16.06;100.00;98232.66;1221846;75;2923639;-69
2023/10/10 07:46:19;;;;;;;;;;;;;;;16.32;100.00;98230.44;1222846;75;2926935;-69
2023/10/10 07:48:54;;;;;;;;;;;;;;;15.73;100.00;98232.09;1220740;75;3105571;-67
2023/10/10 07:51:34;;;;;;;;;;;;;;;16.08;100.00;98227.41;1221332;83;3089297;-73
2023/10/10 07:54:12;;;;;;;;;;;;;;;16.50;100.00;98225.66;1224632;83;2924651;-69
2023/10/10 07:56:47;;;;;;;;;;;;;;;17.06;100.00;98209.06;1225036;75;2918819;-71
2023/10/10 07:59:20;;;;;;;;;;;;;;;17.80;100.00;98215.88;1224330;75;2928368;-74
2023/10/10 08:01:56;;;;;;;;;;;;;;;18.54;100.00;98221.66;1223584;75;3020073;-69
2023/10/10 08:04:28;;;;;;;;;;;;;;;17.90;100.00;98221.88;1212341;75;3797863;-68
2023/10/10 08:07:03;;;;;;;;;;;;;;;17.97;100.00;98220.56;1224898;75;2939199;-68
2023/10/10 08:09:37;;;;;;;;;;;;;;;17.93;100.00;98220.84;1223848;83;2942083;-71
2023/10/10 08:12:09;;;;;;;;;;;;;;;17.83;100.00;98217.63;1223864;83;2922378;-73
2023/10/10 08:14:42;;;;;;;;;;;;;;;18.35;100.00;98218.81;1225116;75;2945231;-67
2023/10/10 08:17:25;;;;;;;;;;;;;;;17.87;100.00;98217.31;1213575;75;3787874;-70
2023/10/10 08:20:30;;;;;;;;;;;;;;;18.09;100.00;98219.25;1222295;75;3023893;-71
2023/10/10 08:22:50;;;;;;;;;;;;;;;18.30;100.00;98222.34;1225621;75;2924326;-69
2023/10/10 08:25:23;;;;;;;;;;;;;;;18.65;100.00;98218.06;1225952;75;2930396;-67
2023/10/10 08:27:55;;;;;;;;;;;;;;;18.45;100.00;98222.75;1223930;75;2932793;-70
2023/10/10 08:30:28;;;;;;;;;;;;;;;19.38;100.00;98225.69;1223868;75;2938860;-71
2023/10/10 08:33:04;;;;;;;;;;;;;;;20.31;93.67;98219.94;1222587;75;2944265;-72
2023/10/10 08:35:38;;;;;;;;;;;;;;;20.31;92.15;98208.81;1219282;75;3092891;-72
2023/10/10 08:38:13;;;;;;;;;;;;;;;21.35;82.53;98214.38;1226115;83;2916574;-68
2023/10/10 08:40:45;;;;;;;;;;;;;;;21.86;74.27;98216.13;1225014;83;2932558;-68
2023/10/10 08:43:21;;;;;;;;;;;;;;;22.94;68.93;98215.88;1223417;83;2926298;-70
2023/10/10 08:45:54;;;;;;;;;;;;;;;22.55;66.04;98217.63;1223573;75;2927353;-71
2023/10/10 08:48:33;;;;;;;;;;;;;;;22.45;68.03;98215.84;1224332;75;2920088;-71
2023/10/10 08:51:07;;;;;;;;;;;;;;;22.88;64.83;98217.34;1224845;75;2924712;-73
2023/10/10 08:53:41;;;;;;;;;;;;;;;23.68;62.50;98214.66;1225432;75;2917460;-71
2023/10/10 08:56:15;;;;;;;;;;;;;;;24.74;58.66;98225.94;1224391;75;2925262;-75
2023/10/10 08:58:48;;;;;;;;;;;;;;;23.98;60.41;98218.88;1225911;75;2925974;-70
2023/10/10 09:01:20;;;;;;;;;;;;;;;24.35;59.52;98220.28;1226096;75;2924719;-70
2023/10/10 09:03:57;;;;;;;;;;;;;;;23.48;60.20;98219.03;1225441;75;2934931;-71
2023/10/10 09:06:42;;;;;;;;;;;;;;;23.79;60.99;98222.75;1224050;75;2941619;-69
2023/10/10 09:12:12;;;;;;;;;;;;;;;21.80;66.18;98215.53;1212502;75;3793599;-72
2023/10/10 09:14:50;;;;;;;;;;;;;;;22.74;64.38;98211.06;1225791;75;2924074;-69
2023/10/10 09:17:32;;;;;;;;;;;;;;;21.32;67.56;98220.28;1222115;75;3167228;-67
2023/10/10 09:20:17;;;;;;;;;;;;;;;21.46;68.12;98216.22;1223943;75;2927686;-72
2023/10/10 09:22:51;;;;;;;;;;;;;;;21.31;68.78;98213.97;1224550;75;2918981;-72
2023/10/10 09:25:26;;;;;;;;;;;;;;;21.55;68.01;98210.22;1224985;83;2929450;-70
2023/10/10 09:28:04;;;;;;;;;;;;;;;22.66;65.92;98207.50;1225335;75;2930562;-71
2023/10/10 09:30:40;;;;;;;;;;;;;;;21.92;67.31;98211.19;1224648;75;2924633;-68
2023/10/10 09:33:22;;;;;;;;;;;;;;;22.37;66.11;98212.22;1225204;75;2926267;-73
2023/10/10 09:36:08;;;;;;;;;;;;;;;23.03;63.33;98211.13;1225627;75;2923132;-72
2023/10/10 09:38:45;;;;;;;;;;;;;;;23.72;60.87;98215.03;1225910;75;2926268;-73
2023/10/10 09:41:36;;;;;;;;;;;;;;;23.72;59.98;98214.31;1225307;75;2924446;-71
2023/10/10 09:44:36;;;;;;;;;;;;;;;23.49;60.27;98216.97;1223100;75;2923695;-70
2023/10/10 09:47:13;;;;;;;;;;;;;;;23.50;60.36;98222.03;1225268;75;2929460;-71
2023/10/10 09:49:51;;;;;;;;;;;;;;;24.13;59.60;98209.81;1225031;83;2923063;-73
2023/10/10 09:55:38;;;;;;;;;;;;;;;23.15;61.60;98215.13;1225201;83;2930126;-69
2023/10/10 10:01:04;;;;;;;;;;;;;;;21.76;64.60;98212.31;1224429;75;2904879;-70
2023/10/10 10:03:54;;;;;;;;;;;;;;;22.75;63.62;98206.97;1225422;75;2925330;-70
2023/10/10 10:06:37;;;;;;;;;;;;;;;23.11;62.48;98209.13;1225648;75;2917724;-69
2023/10/10 10:09:34;;;;;;;;;;;;;;;23.46;60.49;98206.91;1225355;75;2924479;-68
2023/10/10 10:12:30;;;;;;;;;;;;;;;22.73;63.35;98204.00;1223060;75;2943883;-72
2023/10/10 10:15:16;;;;;;;;;;;;;;;23.10;62.16;98197.22;1225079;75;2925604;-68
2023/10/10 10:17:56;;;;;;;;;;;;;;;23.25;62.23;98193.75;1221616;75;3073769;-72
2023/10/10 10:20:34;;;;;;;;;;;;;;;23.68;61.21;98211.09;1223986;75;2931371;-71
2023/10/10 10:23:12;;;;;;;;;;;;;;;23.83;60.64;98213.97;1221257;75;3046163;-70
2023/10/10 10:26:04;;;;;;;;;;;;;;;24.36;58.39;98212.63;1224884;75;2927948;-70
2023/10/10 10:28:37;;;;;;;;;;;;;;;24.17;59.35;98215.75;1224588;83;2924464;-74
2023/10/10 10:31:16;;;;;;;;;;;;;;;24.23;60.06;98214.28;1225012;75;2925995;-69
2023/10/10 10:34:10;;;;;;;;;;;;;;;23.78;60.31;98209.31;1222107;83;3022077;-72
2023/10/10 10:36:45;;;;;;;;;;;;;;;23.28;61.26;98208.66;1225977;75;2921440;-71
2023/10/10 10:39:20;;;;;;;;;;;;;;;23.83;60.81;98211.19;1224685;75;2924950;-70
2023/10/10 10:42:01;;;;;;;;;;;;;;;24.27;60.15;98210.38;1226142;75;2941583;-72
2023/10/10 10:44:44;;;;;;;;;;;;;;;25.00;57.56;98210.81;1226650;75;2923270;-71
2023/10/10 10:47:49;;;;;;;;;;;;;;;25.34;57.43;98204.78;1224540;75;2914793;-70
2023/10/10 10:50:40;;;;;;;;;;;;;;;24.98;56.37;98208.56;1223602;75;2928261;-72
2023/10/10 10:53:35;;;;;;;;;;;;;;;25.04;57.09;98197.91;1224209;75;2923242;-68
2023/10/10 11:01:51;;;;;;;;;;;;;;;26.92;52.87;98190.22;1225222;75;2925029;-70
2023/10/10 11:07:16;;;;;;;;;;;;;;;26.13;52.34;98188.56;1226951;75;2921300;-71
2023/10/10 11:10:06;;;;;;;;;;;;;;;26.51;50.75;98184.75;1224853;75;2931310;-71
2023/10/10 11:12:41;;;;;;;;;;;;;;;26.56;50.72;98183.78;1224763;75;2926654;-71
2023/10/10 11:15:17;;;;;;;;;;;;;;;26.19;52.45;98176.34;1225094;75;2922034;-72
2023/10/10 11:18:07;;;;;;;;;;;;;;;24.72;55.14;98175.34;1225318;75;2925942;-72
2023/10/10 11:23:41;;;;;;;;;;;;;;;24.81;55.34;98185.97;1224937;75;2930989;-70
2023/10/10 11:26:15;;;;;;;;;;;;;;;24.57;55.20;98188.03;1225951;75;2919901;-69
2023/10/10 11:28:51;;;;;;;;;;;;;;;23.42;58.12;98190.50;1225637;75;2923395;-73
2023/10/10 11:31:29;;;;;;;;;;;;;;;24.74;55.86;98192.34;1224620;75;2923902;-73
2023/10/10 11:34:26;;;;;;;;;;;;;;;24.62;56.17;98203.91;1224493;75;2925445;-69
2023/10/10 11:37:13;;;;;;;;;;;;;;;24.27;57.97;98219.53;1225680;75;2931014;-70
2023/10/10 11:39:57;;;;;;;;;;;;;;;23.37;61.21;98230.53;1225551;83;2921907;-71
2023/10/10 11:42:30;;;;;;;;;;;;;;;23.20;62.26;98228.19;1224401;75;2928651;-69
2023/10/10 11:45:06;;;;;;;;;;;;;;;23.00;63.70;98221.34;1224821;75;2918626;-71
2023/10/10 11:47:45;;;;;;;;;;;;;;;22.55;65.15;98206.44;1222218;75;3023756;-68
2023/10/10 11:50:22;;;;;;;;;;;;;;;22.62;65.13;98198.69;1225338;83;2928523;-70
2023/10/10 11:52:56;;;;;;;;;;;;;;;22.26;66.75;98210.47;1224483;75;2921294;-67
2023/10/10 11:55:28;;;;;;;;;;;;;;;22.43;67.34;98215.66;1225131;75;2921011;-74
2023/10/10 11:58:06;;;;;;;;;;;;;;;22.30;67.70;98213.69;1225503;75;2919734;-68
2023/10/10 12:00:42;;;;;;;;;;;;;;;22.37;68.20;98201.06;1225411;75;2940056;-68
2023/10/10 12:03:32;;;;;;;;;;;;;;;22.53;67.38;98197.88;1225490;75;2923292;-70
2023/10/10 12:06:04;;;;;;;;;;;;;;;22.26;69.90;98200.06;1219440;75;3139033;-70
2023/10/10 12:08:37;;;;;;;;;;;;;;;22.08;69.60;98195.38;1225076;75;2920612;-70
2023/10/10 12:11:12;;;;;;;;;;;;;;;21.89;69.96;98182.38;1223010;75;2917354;-71
2023/10/10 12:13:44;;;;;;;;;;;;;;;20.88;73.21;98189.19;1224374;75;2923854;-74
2023/10/10 12:16:17;;;;;;;;;;;;;;;20.74;75.18;98189.19;1222010;75;2956969;-71
2023/10/10 12:18:52;;;;;;;;;;;;;;;20.99;75.35;98203.66;1224456;75;2929281;-71
2023/10/10 12:21:25;;;;;;;;;;;;;;;21.40;73.44;98193.28;1212360;83;3941474;-71
2023/10/10 12:23:58;;;;;;;;;;;;;;;21.85;72.74;98192.34;1222740;75;2924142;-71
2023/10/10 12:26:35;;;;;;;;;;;;;;;21.63;71.10;98193.59;1224703;75;2976379;-69
2023/10/10 12:29:10;;;;;;;;;;;;;;;21.69;72.05;98192.19;1225565;75;2930752;-70
2023/10/10 12:31:42;;;;;;;;;;;;;;;21.91;71.01;98187.38;1224722;75;2922670;-71
2023/10/10 12:34:21;;;;;;;;;;;;;;;22.31;69.27;98192.84;1222330;75;3032110;-69
2023/10/10 12:36:59;;;;;;;;;;;;;;;22.72;69.03;98183.69;1226134;75;2920978;-71
2023/10/10 12:39:31;;;;;;;;;;;;;;;23.21;66.92;98175.84;1224554;75;2927431;-69
2023/10/10 12:42:03;;;;;;;;;;;;;;;22.54;68.52;98179.13;1224630;75;2922265;-70
2023/10/10 12:44:36;;;;;;;;;;;;;;;22.81;66.83;98179.69;1225480;75;2920344;-70
2023/10/10 12:47:09;;;;;;;;;;;;;;;22.23;67.90;98184.41;1220381;75;3037517;-72
2023/10/10 12:49:44;;;;;;;;;;;;;;;23.12;65.37;98183.44;1225181;75;2953798;-71
2023/10/10 12:52:17;;;;;;;;;;;;;;;23.75;63.30;98191.59;1224740;75;2923397;-71
2023/10/10 12:54:57;;;;;;;;;;;;;;;24.09;62.06;98189.81;1224911;75;2925106;-68
2023/10/10 12:57:33;;;;;;;;;;;;;;;23.17;62.98;98187.38;1222674;75;2921139;-70
2023/10/10 13:02:53;;;;;;;;;;;;;;;24.29;61.51;98188.19;1220788;75;3114868;-69
2023/10/10 13:05:29;;;;;;;;;;;;;;;23.70;63.59;98192.47;1225377;75;2920180;-71
2023/10/10 13:08:06;;;;;;;;;;;;;;;24.08;61.46;98179.94;1225513;75;2913813;-68
2023/10/10 13:10:38;;;;;;;;;;;;;;;23.91;63.57;98172.06;1219547;83;3047492;-75
2023/10/10 13:13:15;;;;;;;;;;;;;;;22.93;63.95;98180.88;1224061;75;2956608;-69
2023/10/10 13:15:52;;;;;;;;;;;;;;;22.86;63.53;98187.16;1224245;83;2920656;-70
2023/10/10 13:18:25;;;;;;;;;;;;;;;23.66;62.26;98185.75;1197587;75;5044993;-70
2023/10/10 13:21:00;;;;;;;;;;;;;;;23.20;63.22;98182.75;1207937;75;4124209;-69
2023/10/10 13:23:35;;;;;;;;;;;;;;;23.43;63.83;98189.22;1224365;75;2918749;-69
2023/10/10 13:26:08;;;;;;;;;;;;;;;23.01;63.97;98177.41;1225059;75;2921961;-72
2023/10/10 13:28:44;;;;;;;;;;;;;;;23.37;63.63;98178.16;1224812;83;2920443;-72
2023/10/10 13:31:17;;;;;;;;;;;;;;;23.88;62.08;98171.13;1224671;83;2920251;-69
2023/10/10 13:33:49;;;;;;;;;;;;;;;23.82;61.18;98173.34;1224017;83;2917412;-69
2023/10/10 13:36:24;;;;;;;;;;;;;;;23.58;62.66;98182.94;1225314;75;2925544;-69
2023/10/10 13:39:05;;;;;;;;;;;;;;;23.20;61.71;98172.31;1225581;75;2920807;-73
2023/10/10 13:41:38;;;;;;;;;;;;;;;23.76;61.21;98162.34;1224703;75;2922532;-72
2023/10/10 13:44:11;;;;;;;;;;;;;;;23.13;60.83;98157.00;1221927;75;2949480;-70
2023/10/10 13:46:43;;;;;;;;;;;;;;;22.93;61.88;98147.38;1221763;67;3095967;-73
2023/10/10 13:49:18;;;;;;;;;;;;;;;23.12;62.14;98155.53;1196537;75;4810608;-70
2023/10/10 13:51:55;;;;;;;;;;;;;;;22.68;61.83;98152.63;1225812;75;2930781;-75
2023/10/10 13:54:28;;;;;;;;;;;;;;;22.22;63.31;98157.81;1223594;75;2931321;-70
2023/10/10 13:57:01;;;;;;;;;;;;;;;22.27;63.23;98154.16;1223323;75;2993373;-73
2023/10/10 13:59:34;;;;;;;;;;;;;;;22.59;62.56;98155.91;1222290;75;3041810;-69
2023/10/10 14:02:10;;;;;;;;;;;;;;;22.05;64.09;98155.38;1223250;75;2919725;-71
2023/10/10 14:04:51;;;;;;;;;;;;;;;22.65;63.43;98155.75;1225597;75;2917618;-69
2023/10/10 14:07:26;;;;;;;;;;;;;;;22.08;65.14;98157.09;1226377;75;2907184;-72
2023/10/10 14:10:01;;;;;;;;;;;;;;;21.85;66.39;98156.13;1225334;75;2927895;-71
2023/10/10 14:12:34;;;;;;;;;;;;;;;22.22;65.51;98157.81;1224165;83;2942019;-71
2023/10/10 14:15:07;;;;;;;;;;;;;;;22.44;64.38;98156.53;1224850;83;2918459;-74
2023/10/10 14:17:39;;;;;;;;;;;;;;;22.32;65.48;98153.25;1225326;75;2918556;-71
2023/10/10 14:20:20;;;;;;;;;;;;;;;22.12;65.80;98157.50;1226086;75;2918696;-73
2023/10/10 14:22:55;;;;;;;;;;;;;;;22.21;66.75;98152.78;1225091;83;2920875;-75
2023/10/10 14:25:37;;;;;;;;;;;;;;;22.26;66.35;98151.91;1224270;75;2960554;-70
2023/10/10 14:28:09;;;;;;;;;;;;;;;22.39;66.13;98159.44;1224974;75;2920247;-71
2023/10/10 14:30:42;;;;;;;;;;;;;;;22.22;66.48;98165.44;1225447;83;2923725;-73
2023/10/10 14:33:14;;;;;;;;;;;;;;;22.17;66.14;98158.66;1220856;75;2998145;-69
2023/10/10 14:35:46;;;;;;;;;;;;;;;22.22;67.29;98159.84;1223566;75;2967944;-70
2023/10/10 14:38:21;;;;;;;;;;;;;;;21.67;68.31;98158.53;1225613;75;2891834;-74
2023/10/10 14:40:54;;;;;;;;;;;;;;;21.98;68.07;98152.53;1222127;75;3074510;-67
2023/10/10 14:43:26;;;;;;;;;;;;;;;21.88;68.78;98152.25;1209599;75;4071206;-74
2023/10/10 14:45:58;;;;;;;;;;;;;;;22.57;67.66;98158.47;1225175;75;2922267;-69
2023/10/10 14:48:33;;;;;;;;;;;;;;;22.12;68.99;98153.97;1211907;75;4019803;-71
2023/10/10 14:51:07;;;;;;;;;;;;;;;22.07;68.84;98155.59;1225240;75;2929983;-72
2023/10/10 14:53:42;;;;;;;;;;;;;;;21.95;69.38;98148.78;1224732;83;2922274;-69
2023/10/10 14:56:19;;;;;;;;;;;;;;;21.94;70.42;98154.91;1199207;83;4975058;-69
2023/10/10 14:58:51;;;;;;;;;;;;;;;22.29;69.03;98156.38;1224480;75;2950174;-70
2023/10/10 15:01:23;;;;;;;;;;;;;;;22.15;69.11;98152.88;1226547;83;2923816;-71
2023/10/10 15:03:57;;;;;;;;;;;;;;;22.22;68.30;98154.28;1225110;75;2920779;-68
2023/10/10 15:06:29;;;;;;;;;;;;;;;22.15;69.62;98147.28;1222825;75;3060821;-73
2023/10/10 15:09:04;;;;;;;;;;;;;;;21.93;69.48;98148.56;1226132;75;2939537;-72
2023/10/10 15:11:41;;;;;;;;;;;;;;;22.57;67.72;98152.16;1222249;75;3096346;-70
2023/10/10 15:14:14;;;;;;;;;;;;;;;22.64;67.71;98152.22;1222096;83;3117377;-72
2023/10/10 15:16:47;;;;;;;;;;;;;;;22.60;68.85;98153.84;1224356;75;2929918;-68
2023/10/10 15:19:19;;;;;;;;;;;;;;;22.05;69.76;98160.97;1223539;75;2955802;-69
2023/10/10 15:21:51;;;;;;;;;;;;;;;21.97;70.83;98159.41;1207659;75;4072128;-70
2023/10/10 15:24:28;;;;;;;;;;;;;;;22.31;69.81;98168.50;1222676;75;3005609;-68
2023/10/10 15:27:01;;;;;;;;;;;;;;;22.40;69.96;98169.31;1224848;83;2922923;-71